Time;durP1;ratioP1;P1;durP2;ratioP2;P2;SDS_P1;SDS_P2;PMS_P1;PMS_P2;Temp;Humidity;BMP_temperature;BMP_pressure;BME280_temperature;BME280_humidity;BME280_pressure;Samples;Min_cycle;Max_cycle;Signal;HPM_P1;HPM_P2
2023/05/26 00:00:41;;;;;;;98.35;88.68;;;23.90;66.20;;;;;;4806951;55;21002;-32
2023/05/26 00:05:43;;;;;;;98.65;88.78;;;23.90;66.20;;;;;;4773480;55;21030;-32
2023/05/26 00:10:44;;;;;;;95.15;85.72;;;23.90;66.20;;;;;;4845006;55;21527;-34
2023/05/26 00:15:44;;;;;;;95.38;86.00;;;23.90;66.20;;;;;;4807971;55;21025;-36
2023/05/26 00:20:45;;;;;;;88.20;79.40;;;23.90;66.30;;;;;;4853817;55;21552;-36
2023/05/26 00:25:47;;;;;;;93.35;84.03;;;23.90;66.20;;;;;;4761833;55;21085;-36
2023/05/26 00:30:47;;;;;;;89.47;80.85;;;23.90;66.20;;;;;;4966573;55;21381;-34
2023/05/26 00:35:48;;;;;;;89.93;81.10;;;23.90;66.30;;;;;;4744032;55;21022;-30
2023/05/26 00:40:50;;;;;;;90.97;81.97;;;23.90;66.90;;;;;;4846840;55;21002;-33
2023/05/26 00:45:51;;;;;;;89.75;80.97;;;23.90;66.30;;;;;;4784817;55;21029;-36
2023/05/26 00:50:52;;;;;;;89.32;80.53;;;23.90;66.30;;;;;;4787002;55;21488;-32
2023/05/26 00:55:54;;;;;;;90.95;82.07;;;23.90;66.30;;;;;;4762774;55;21052;-33
2023/05/26 01:00:56;;;;;;;88.65;79.75;;;23.90;66.30;;;;;;4898639;55;21563;-36
2023/05/26 01:05:57;;;;;;;84.43;76.20;;;23.90;66.30;;;;;;4784072;55;21885;-33
2023/05/26 01:11:06;;;;;;;83.47;75.20;;;23.90;66.30;;;;;;4750861;55;21400;-34
2023/05/26 01:16:11;;;;;;;85.72;77.30;;;23.90;66.20;;;;;;4740187;59;21013;-36
2023/05/26 01:21:12;;;;;;;83.35;75.10;;;23.90;66.30;;;;;;4807999;55;21551;-37
2023/05/26 01:28:19;;;;;;;82.65;74.50;;;23.90;66.30;;;;;;4763740;55;21068;-35
2023/05/26 01:33:20;;;;;;;81.80;73.80;;;23.90;66.30;;;;;;4750100;55;20970;-34
2023/05/26 01:38:21;;;;;;;79.72;71.93;;;23.90;66.40;;;;;;4818806;55;21077;-33
2023/05/26 01:43:37;;;;;;;80.22;72.43;;;23.90;66.30;;;;;;4780785;55;21108;-32
2023/05/26 01:48:44;;;;;;;81.68;73.65;;;23.90;66.30;;;;;;4739651;59;21089;-36
2023/05/26 01:53:51;;;;;;;79.20;71.47;;;23.80;66.30;;;;;;4768047;55;21053;-34
2023/05/26 01:58:52;;;;;;;79.00;71.30;;;23.90;66.30;;;;;;4784980;55;21040;-35
2023/05/26 02:03:54;;;;;;;77.70;70.15;;;23.90;66.30;;;;;;4745667;55;21484;-32
2023/05/26 02:08:55;;;;;;;76.72;69.07;;;23.90;66.30;;;;;;4745654;55;21085;-35
2023/05/26 02:13:56;;;;;;;75.68;68.28;;;23.90;66.40;;;;;;4740126;59;21029;-32
2023/05/26 02:18:57;;;;;;;76.65;69.10;;;23.90;66.30;;;;;;4824107;55;21140;-33
2023/05/26 02:24:00;;;;;;;74.57;67.30;;;23.90;67.00;;;;;;4828616;55;21017;-32
2023/05/26 02:29:01;;;;;;;73.40;66.20;;;23.90;66.40;;;;;;4918003;55;21073;-33
2023/05/26 02:34:04;;;;;;;70.10;63.13;;;23.90;66.30;;;;;;4740288;59;21503;-32
2023/05/26 02:39:05;;;;;;;72.35;65.25;;;23.90;66.30;;;;;;4880824;55;21480;-35
2023/05/26 02:44:06;;;;;;;70.30;63.40;;;23.90;66.30;;;;;;4842638;55;21017;-32
2023/05/26 02:49:07;;;;;;;71.00;64.12;;;23.90;66.30;;;;;;4786629;55;21077;-33
2023/05/26 02:54:08;;;;;;;70.03;63.15;;;23.90;66.30;;;;;;4740521;55;21021;-33
2023/05/26 02:59:09;;;;;;;69.82;62.95;;;23.90;66.30;;;;;;4743671;55;21017;-32
2023/05/26 03:04:10;;;;;;;70.10;63.25;;;23.90;67.10;;;;;;4760031;55;21018;-33
2023/05/26 03:09:10;;;;;;;69.40;62.58;;;23.90;66.40;;;;;;4776876;55;20994;-33
2023/05/26 03:14:11;;;;;;;68.85;62.17;;;23.90;66.30;;;;;;4790675;54;21026;-33
2023/05/26 03:19:12;;;;;;;67.35;60.97;;;23.90;66.40;;;;;;4805749;55;21822;-32
2023/05/26 03:24:13;;;;;;;63.65;57.45;;;23.90;66.30;;;;;;4764935;55;21022;-34
2023/05/26 03:29:16;;;;;;;62.50;56.35;;;23.90;66.30;;;;;;4749250;55;21483;-31
2023/05/26 03:34:17;;;;;;;63.92;57.83;;;23.90;66.30;;;;;;4757596;55;21547;-33
2023/05/26 03:39:21;;;;;;;62.05;56.03;;;23.90;66.40;;;;;;4797805;55;21133;-33
2023/05/26 03:44:23;;;;;;;63.58;57.38;;;23.90;66.50;;;;;;4782475;55;21008;-34
2023/05/26 03:49:24;;;;;;;60.15;54.15;;;23.90;66.40;;;;;;4740589;59;21472;-34
2023/05/26 03:54:24;;;;;;;61.45;55.50;;;23.90;66.40;;;;;;4740620;58;21144;-37
2023/05/26 03:59:25;;;;;;;60.33;54.35;;;23.90;66.30;;;;;;4768460;55;21077;-32
2023/05/26 04:04:26;;;;;;;60.60;54.70;;;23.90;66.40;;;;;;4944342;54;21061;-32
2023/05/26 04:09:27;;;;;;;59.90;54.00;;;23.90;66.40;;;;;;4776360;55;21503;-31
2023/05/26 04:14:28;;;;;;;59.58;53.83;;;23.80;66.40;;;;;;4865483;55;21085;-33
2023/05/26 04:19:29;;;;;;;59.05;53.22;;;23.90;66.50;;;;;;4769027;55;21008;-31
2023/05/26 04:24:29;;;;;;;58.97;53.25;;;23.90;66.50;;;;;;4740245;58;21464;-32
2023/05/26 04:29:33;;;;;;;57.78;52.28;;;23.90;66.50;;;;;;4921833;55;21018;-34
2023/05/26 04:34:34;;;;;;;56.20;50.70;;;23.90;66.40;;;;;;4741809;55;21005;-32
2023/05/26 04:39:35;;;;;;;56.63;51.15;;;23.80;66.40;;;;;;4787794;55;21077;-33
2023/05/26 04:44:37;;;;;;;53.38;48.08;;;23.80;66.40;;;;;;4740173;59;21057;-34
2023/05/26 04:49:38;;;;;;;55.80;50.30;;;23.80;66.40;;;;;;4845365;55;21479;-35
2023/05/26 04:54:42;;;;;;;52.72;47.42;;;23.80;66.30;;;;;;4871201;55;22009;-32
2023/05/26 04:59:43;;;;;;;53.03;47.70;;;23.80;66.40;;;;;;4935335;55;21491;-35
2023/05/26 05:04:45;;;;;;;51.78;46.53;;;23.80;66.30;;;;;;4884266;55;21515;-34
2023/05/26 05:09:46;;;;;;;53.30;47.75;;;23.80;66.30;;;;;;4776142;55;21550;-36
2023/05/26 05:14:47;;;;;;;54.03;48.30;;;23.80;66.30;;;;;;4739770;59;21128;-35
2023/05/26 05:19:48;;;;;;;50.85;45.28;;;23.80;66.30;;;;;;4760656;55;21810;-34
2023/05/26 05:24:48;;;;;;;51.17;45.83;;;23.80;66.30;;;;;;4749187;55;21013;-34
2023/05/26 05:29:49;;;;;;;51.67;46.10;;;23.80;66.30;;;;;;4762940;54;21049;-33
2023/05/26 05:34:50;;;;;;;50.92;45.40;;;23.80;66.30;;;;;;4895639;54;21029;-36
2023/05/26 05:39:51;;;;;;;50.50;45.10;;;23.80;66.30;;;;;;4776615;55;21054;-32
2023/05/26 05:44:52;;;;;;;50.03;44.65;;;23.80;66.30;;;;;;4753767;55;21010;-36
2023/05/26 05:49:53;;;;;;;50.40;43.97;;;23.80;66.30;;;;;;4834034;55;21097;-32
2023/05/26 05:54:54;;;;;;;50.12;44.03;;;23.80;66.40;;;;;;4758167;55;21472;-33
2023/05/26 05:59:55;;;;;;;51.30;44.03;;;23.80;66.30;;;;;;4754156;55;21516;-32
2023/05/26 06:04:56;;;;;;;51.22;44.08;;;23.80;66.30;;;;;;4806978;55;21033;-32
2023/05/26 06:09:57;;;;;;;52.40;43.70;;;23.80;66.30;;;;;;4908313;55;21484;-32
2023/05/26 06:14:58;;;;;;;54.40;45.42;;;23.80;66.20;;;;;;5013461;55;21109;-33
2023/05/26 06:19:58;;;;;;;53.67;43.00;;;23.80;66.20;;;;;;4827537;55;21536;-32
2023/05/26 06:24:59;;;;;;;53.33;43.58;;;23.80;66.30;;;;;;4767062;55;21128;-32
2023/05/26 06:30:03;;;;;;;51.40;43.42;;;23.80;66.20;;;;;;4939262;55;21136;-32
2023/05/26 06:35:05;;;;;;;50.88;42.10;;;23.80;66.20;;;;;;4737684;59;21558;-33
2023/05/26 06:40:10;;;;;;;53.05;42.95;;;23.80;66.20;;;;;;4749375;55;21665;-34
2023/05/26 06:45:11;;;;;;;47.83;41.42;;;23.80;66.20;;;;;;4740167;55;21014;-32
2023/05/26 06:50:12;;;;;;;53.05;42.75;;;23.80;66.70;;;;;;4738403;59;21053;-32
2023/05/26 06:55:13;;;;;;;52.83;41.50;;;23.80;66.10;;;;;;4770780;55;21001;-32
2023/05/26 07:00:14;;;;;;;52.90;43.45;;;23.90;66.00;;;;;;4738615;55;21061;-30
2023/05/26 07:05:15;;;;;;;50.92;41.65;;;24.00;65.80;;;;;;4770472;55;21017;-32
2023/05/26 07:10:16;;;;;;;51.53;42.17;;;24.00;66.10;;;;;;4744393;55;20997;-33
2023/05/26 07:15:17;;;;;;;49.60;40.38;;;24.00;66.10;;;;;;4738230;55;22421;-31
2023/05/26 07:20:18;;;;;;;49.72;41.95;;;24.10;66.30;;;;;;4740880;55;21053;-31
2023/05/26 07:25:19;;;;;;;52.17;41.60;;;24.10;65.90;;;;;;4753716;55;21033;-32
2023/05/26 07:30:20;;;;;;;53.13;41.33;;;24.10;66.20;;;;;;4765730;55;21029;-33
2023/05/26 07:35:21;;;;;;;50.75;41.37;;;24.00;66.00;;;;;;4738674;55;21548;-31
2023/05/26 07:40:22;;;;;;;50.17;41.30;;;24.00;66.10;;;;;;4742153;54;21073;-37
2023/05/26 07:45:23;;;;;;;48.33;40.92;;;24.00;66.10;;;;;;4737962;55;21504;-34
2023/05/26 07:50:24;;;;;;;53.08;40.00;;;24.00;66.10;;;;;;4775166;55;21029;-32
2023/05/26 07:55:24;;;;;;;47.88;40.35;;;24.00;66.20;;;;;;4771761;55;21491;-31
2023/05/26 08:00:25;;;;;;;46.85;39.40;;;24.00;66.10;;;;;;4760877;55;21100;-30
2023/05/26 08:05:26;;;;;;;48.63;39.78;;;24.00;66.10;;;;;;4747115;55;21111;-36
2023/05/26 08:10:27;;;;;;;46.13;38.60;;;24.00;66.10;;;;;;4802379;55;21472;-37
2023/05/26 08:15:28;;;;;;;44.78;38.80;;;24.00;66.10;;;;;;4772171;55;21061;-35
2023/05/26 08:20:29;;;;;;;44.95;37.00;;;24.00;66.10;;;;;;4774875;55;21487;-31
2023/05/26 08:25:30;;;;;;;44.80;38.63;;;24.10;66.10;;;;;;4773808;54;21076;-32
2023/05/26 08:30:31;;;;;;;47.00;38.88;;;24.10;66.20;;;;;;4768987;55;21081;-33
2023/05/26 08:35:31;;;;;;;45.50;38.67;;;24.10;66.10;;;;;;4904856;55;21095;-32
2023/05/26 08:40:33;;;;;;;44.72;39.03;;;24.00;66.10;;;;;;4844656;54;21033;-33
2023/05/26 08:45:34;;;;;;;45.80;38.35;;;24.10;66.10;;;;;;4746420;55;21593;-31
2023/05/26 08:50:36;;;;;;;45.55;38.72;;;24.10;66.10;;;;;;4739223;59;21573;-42
2023/05/26 08:55:37;;;;;;;44.17;37.60;;;24.10;66.10;;;;;;4798664;55;21021;-31
2023/05/26 09:00:40;;;;;;;44.58;38.20;;;24.10;66.10;;;;;;4764595;55;21471;-32
2023/05/26 09:05:41;;;;;;;41.50;36.75;;;24.10;66.10;;;;;;4762307;55;21487;-34
2023/05/26 09:10:41;;;;;;;42.22;36.22;;;24.10;66.10;;;;;;4739616;55;21069;-30
2023/05/26 09:15:42;;;;;;;45.40;37.72;;;24.20;66.60;;;;;;4788226;55;22064;-31
2023/05/26 09:20:48;;;;;;;42.30;36.75;;;24.20;66.90;;;;;;4760062;55;21218;-33
2023/05/26 09:25:51;;;;;;;40.72;34.75;;;24.20;67.10;;;;;;4763135;55;21089;-32
2023/05/26 09:30:51;;;;;;;44.08;38.22;;;24.20;67.10;;;;;;4785731;55;21072;-32
2023/05/26 09:35:53;;;;;;;42.85;35.30;;;24.30;67.30;;;;;;4740531;55;21148;-33
2023/05/26 09:40:54;;;;;;;47.03;37.88;;;24.30;67.30;;;;;;4784784;55;21136;-33
2023/05/26 09:45:55;;;;;;;41.90;36.75;;;24.30;67.30;;;;;;4758923;55;21081;-30
2023/05/26 09:50:56;;;;;;;47.13;39.22;;;24.30;67.60;;;;;;4753439;55;21460;-30
2023/05/26 09:56:01;;;;;;;44.97;36.97;;;24.30;67.60;;;;;;4742512;55;21031;-32
2023/05/26 10:01:02;;;;;;;44.10;38.45;;;24.40;67.60;;;;;;4752954;55;21633;-35
2023/05/26 10:06:04;;;;;;;44.83;37.15;;;24.40;67.70;;;;;;4741979;55;21049;-33
2023/05/26 10:11:06;;;;;;;43.25;36.08;;;24.30;67.80;;;;;;4738721;59;20997;-34
2023/05/26 10:16:07;;;;;;;45.42;37.47;;;24.30;67.90;;;;;;4741354;55;21120;-32
2023/05/26 10:21:11;;;;;;;44.38;38.40;;;24.40;68.10;;;;;;4761771;55;21044;-31
2023/05/26 10:26:23;;;;;;;44.00;38.08;;;24.40;68.10;;;;;;4739215;55;21045;-32
2023/05/26 10:31:33;;;;;;;44.70;36.55;;;24.40;68.00;;;;;;4767148;55;21049;-32
2023/05/26 10:36:35;;;;;;;42.85;37.28;;;24.40;68.30;;;;;;4759299;55;21077;-32
2023/05/26 10:41:38;;;;;;;44.55;36.80;;;24.40;68.30;;;;;;4772515;55;21479;-33
2023/05/26 10:46:44;;;;;;;43.63;37.42;;;24.40;68.30;;;;;;4737259;59;21056;-36
2023/05/26 10:51:50;;;;;;;48.38;37.35;;;24.40;68.30;;;;;;4766005;55;21072;-32
2023/05/26 10:56:53;;;;;;;44.22;36.13;;;24.40;68.40;;;;;;4767750;55;21440;-31
2023/05/26 11:01:55;;;;;;;41.78;34.70;;;24.40;68.40;;;;;;4757961;55;21526;-34
2023/05/26 11:07:01;;;;;;;40.33;35.90;;;24.40;68.30;;;;;;4743357;55;21009;-34
2023/05/26 11:12:06;;;;;;;38.25;33.95;;;24.40;68.50;;;;;;4783260;55;21191;-32
2023/05/26 11:17:07;;;;;;;41.47;35.35;;;24.50;68.60;;;;;;4762838;55;21610;-31
2023/05/26 11:22:10;;;;;;;39.58;35.17;;;24.40;68.60;;;;;;4768629;55;21480;-34
2023/05/26 11:27:11;;;;;;;40.22;33.53;;;24.40;68.50;;;;;;4753455;55;21069;-33
2023/05/26 11:32:13;;;;;;;39.75;35.17;;;24.50;68.60;;;;;;4742897;55;21567;-30
2023/05/26 11:37:13;;;;;;;42.60;35.55;;;24.50;68.70;;;;;;4747505;55;21571;-31
2023/05/26 11:42:14;;;;;;;40.88;35.60;;;24.50;68.70;;;;;;4794371;55;21033;-32
2023/05/26 11:47:21;;;;;;;37.25;32.92;;;24.50;68.90;;;;;;4761507;55;21106;-33
2023/05/26 11:52:23;;;;;;;41.65;34.30;;;24.50;68.90;;;;;;4764060;55;21021;-32
2023/05/26 11:57:31;;;;;;;37.72;32.35;;;24.50;68.90;;;;;;4764187;55;21036;-34
2023/05/26 12:02:32;;;;;;;44.92;36.25;;;24.50;69.00;;;;;;4748741;55;21730;-32
2023/05/26 12:07:34;;;;;;;41.88;35.05;;;24.50;68.90;;;;;;4778406;55;21100;-34
2023/05/26 12:12:51;;;;;;;40.67;36.17;;;24.50;69.00;;;;;;4738130;59;21463;-35
2023/05/26 12:17:52;;;;;;;;;;;24.60;69.10;;;;;;4743048;55;21001;-35
2023/05/26 12:23:02;;;;;;;40.90;33.90;;;24.60;68.90;;;;;;4752308;55;20060;-33
2023/05/26 12:28:03;;;;;;;41.25;35.85;;;24.50;68.90;;;;;;4780388;55;21639;-32
2023/05/26 12:33:06;;;;;;;43.28;36.85;;;24.50;68.90;;;;;;4738485;59;21006;-34
2023/05/26 12:38:14;;;;;;;43.22;34.88;;;24.50;69.00;;;;;;4753680;55;21037;-33
2023/05/26 12:43:16;;;;;;;49.45;39.47;;;24.40;68.90;;;;;;4790104;55;21484;-32
2023/05/26 12:48:17;;;;;;;45.30;37.90;;;24.40;68.80;;;;;;4830336;55;21504;-31
2023/05/26 12:53:18;;;;;;;47.60;39.00;;;24.50;68.80;;;;;;4746326;55;21017;-31
2023/05/26 12:58:20;;;;;;;45.92;38.08;;;24.50;68.90;;;;;;4747973;55;21013;-30
2023/05/26 13:03:21;;;;;;;45.78;36.53;;;24.50;69.10;;;;;;4785657;55;21570;-30
2023/05/26 13:08:22;;;;;;;43.87;35.85;;;24.60;69.20;;;;;;4749698;55;21488;-34
2023/05/26 13:13:23;;;;;;;42.62;36.42;;;24.50;69.20;;;;;;4743910;55;21018;-33
2023/05/26 13:18:25;;;;;;;44.70;37.13;;;24.60;69.40;;;;;;4744758;55;21061;-33
2023/05/26 13:23:25;;;;;;;39.45;35.17;;;24.60;69.40;;;;;;4744264;55;21021;-31
2023/05/26 13:28:26;;;;;;;39.08;33.67;;;24.60;69.40;;;;;;4752321;55;21021;-34
2023/05/26 13:33:27;;;;;;;41.55;34.03;;;24.60;69.50;;;;;;4739887;55;20998;-33
2023/05/26 13:38:28;;;;;;;39.65;33.47;;;24.60;69.50;;;;;;4771907;54;21033;-33
2023/05/26 13:43:29;;;;;;;43.17;34.97;;;24.50;69.60;;;;;;4743405;55;21057;-32
2023/05/26 13:48:30;;;;;;;40.15;32.25;;;24.40;69.60;;;;;;4788091;55;21067;-32
2023/05/26 13:53:33;;;;;;;39.42;32.78;;;24.40;69.80;;;;;;4772030;54;21025;-33
2023/05/26 13:58:34;;;;;;;38.50;32.92;;;24.40;69.70;;;;;;4738551;59;21558;-33
2023/05/26 14:03:34;;;;;;;37.10;32.55;;;24.40;69.80;;;;;;4788731;55;20998;-32
2023/05/26 14:08:35;;;;;;;36.95;32.08;;;24.30;69.70;;;;;;4763686;55;21097;-36
2023/05/26 14:13:36;;;;;;;39.08;33.00;;;24.30;69.70;;;;;;4739889;59;21444;-34
2023/05/26 14:18:37;;;;;;;36.47;31.40;;;24.30;69.70;;;;;;4804463;55;21093;-33
2023/05/26 14:23:38;;;;;;;36.63;32.40;;;24.30;69.70;;;;;;4797727;55;20993;-34
2023/05/26 14:28:39;;;;;;;40.25;32.92;;;24.30;69.60;;;;;;4742256;55;21065;-33
2023/05/26 14:33:40;;;;;;;34.53;30.58;;;24.30;69.60;;;;;;4796652;55;21447;-36
2023/05/26 14:38:45;;;;;;;35.88;31.67;;;24.30;69.60;;;;;;4747475;55;21123;-32
2023/05/26 14:43:46;;;;;;;35.17;31.35;;;24.30;69.50;;;;;;4829798;55;21053;-42
2023/05/26 14:48:47;;;;;;;35.60;30.62;;;24.20;69.50;;;;;;4812278;54;21014;-38
2023/05/26 14:53:48;;;;;;;35.47;30.98;;;24.20;69.50;;;;;;4822632;55;21090;-33
2023/05/26 14:58:49;;;;;;;34.20;30.10;;;24.20;69.40;;;;;;4764342;55;21089;-37
2023/05/26 15:03:50;;;;;;;34.83;30.37;;;24.20;69.40;;;;;;4828425;55;21154;-38
2023/05/26 15:08:51;;;;;;;33.85;30.27;;;24.20;69.30;;;;;;4739551;59;21121;-35
2023/05/26 15:13:52;;;;;;;33.38;29.85;;;24.20;69.20;;;;;;4998316;55;21097;-33
2023/05/26 15:18:52;;;;;;;34.47;30.67;;;24.20;69.30;;;;;;4773780;55;21575;-33
2023/05/26 15:23:53;;;;;;;32.78;28.95;;;24.20;69.30;;;;;;4845155;55;21021;-34
2023/05/26 15:28:54;;;;;;;32.25;28.80;;;24.20;69.20;;;;;;4762418;55;21055;-34
2023/05/26 15:33:55;;;;;;;33.22;29.65;;;24.20;69.20;;;;;;4844330;55;21068;-34
2023/05/26 15:38:58;;;;;;;35.53;29.60;;;24.20;69.10;;;;;;4739408;59;21064;-33
2023/05/26 15:43:59;;;;;;;32.83;29.42;;;24.20;69.10;;;;;;4740113;59;21005;-35
2023/05/26 15:49:00;;;;;;;33.28;29.40;;;24.20;69.10;;;;;;4742763;54;21006;-33
2023/05/26 15:54:01;;;;;;;31.25;27.60;;;24.20;69.10;;;;;;4781335;55;21017;-34
2023/05/26 15:59:02;;;;;;;33.08;29.48;;;24.20;69.00;;;;;;4740156;59;21334;-35
2023/05/26 16:04:04;;;;;;;32.55;29.17;;;24.20;69.00;;;;;;4739687;59;21001;-33
2023/05/26 16:09:06;;;;;;;33.17;29.58;;;24.20;68.90;;;;;;4767689;55;21021;-34
2023/05/26 16:14:07;;;;;;;32.60;28.73;;;24.20;68.90;;;;;;4894193;55;21550;-35
2023/05/26 16:19:08;;;;;;;31.45;28.10;;;24.20;68.90;;;;;;4775014;55;21092;-33
2023/05/26 16:24:12;;;;;;;33.30;28.52;;;24.20;68.80;;;;;;4791935;55;21117;-34
2023/05/26 16:29:14;;;;;;;33.42;29.17;;;24.20;68.90;;;;;;4817490;55;21030;-34
2023/05/26 16:34:15;;;;;;;33.45;28.45;;;24.20;68.80;;;;;;4746571;55;21629;-34
2023/05/26 16:39:16;;;;;;;33.40;28.42;;;24.20;68.80;;;;;;4739754;55;21370;-34
2023/05/26 16:44:17;;;;;;;31.33;27.92;;;24.20;68.70;;;;;;4812555;55;22048;-35
2023/05/26 16:49:18;;;;;;;32.70;28.17;;;24.20;68.70;;;;;;4739059;59;21461;-38
2023/05/26 16:54:19;;;;;;;32.08;28.75;;;24.20;68.60;;;;;;4820213;54;21053;-37
2023/05/26 16:59:20;;;;;;;31.17;27.87;;;24.20;68.70;;;;;;4814447;55;21088;-34
2023/05/26 17:04:20;;;;;;;32.65;28.80;;;24.20;68.70;;;;;;4818632;55;21069;-35
2023/05/26 17:09:21;;;;;;;32.03;28.62;;;24.20;68.60;;;;;;4837236;55;21100;-36
2023/05/26 17:14:24;;;;;;;32.00;28.48;;;24.20;68.70;;;;;;4784753;55;21088;-34
2023/05/26 17:19:25;;;;;;;31.00;27.60;;;24.20;68.60;;;;;;4766769;55;21922;-32
2023/05/26 17:24:27;;;;;;;30.80;26.75;;;24.20;68.50;;;;;;4740366;59;21025;-32
2023/05/26 17:29:28;;;;;;;31.95;28.25;;;24.20;68.50;;;;;;4768674;55;21122;-34
2023/05/26 17:34:29;;;;;;;30.88;27.48;;;24.20;68.60;;;;;;4786337;55;21483;-34
2023/05/26 17:39:30;;;;;;;31.85;28.38;;;24.10;68.50;;;;;;4749032;55;21045;-39
2023/05/26 17:44:30;;;;;;;31.27;27.87;;;24.20;68.50;;;;;;4740665;55;21484;-39
2023/05/26 17:49:32;;;;;;;32.25;28.12;;;24.20;68.50;;;;;;4739144;59;21541;-32
2023/05/26 17:54:33;;;;;;;30.60;26.75;;;24.20;68.50;;;;;;4766752;55;21515;-33
2023/05/26 17:59:34;;;;;;;32.05;27.48;;;24.20;68.50;;;;;;4773938;55;21492;-36
2023/05/26 18:04:34;;;;;;;30.77;27.45;;;24.10;69.10;;;;;;4740758;55;21417;-34
2023/05/26 18:09:39;;;;;;;29.83;26.55;;;24.10;68.40;;;;;;4807280;55;21539;-33
2023/05/26 18:14:41;;;;;;;30.98;27.67;;;24.10;68.40;;;;;;4741368;55;21491;-32
2023/05/26 18:19:42;;;;;;;31.15;27.42;;;24.20;68.50;;;;;;4788905;55;21511;-32
2023/05/26 18:24:43;;;;;;;30.75;27.45;;;24.10;68.40;;;;;;4885279;55;21215;-33
2023/05/26 18:29:44;;;;;;;30.00;26.80;;;24.10;68.40;;;;;;4759785;55;21064;-33
2023/05/26 18:34:44;;;;;;;28.70;25.60;;;24.10;68.30;;;;;;4740018;59;21014;-32
2023/05/26 18:39:51;;;;;;;32.95;27.90;;;24.10;68.30;;;;;;4926661;54;21085;-32
2023/05/26 18:44:52;;;;;;;30.00;26.37;;;24.10;68.30;;;;;;4846290;55;21483;-32
2023/05/26 18:49:52;;;;;;;29.35;26.35;;;24.10;68.30;;;;;;4774644;55;21013;-33
2023/05/26 18:54:53;;;;;;;28.35;25.25;;;24.10;68.30;;;;;;4742816;54;20998;-35
2023/05/26 18:59:54;;;;;;;29.45;26.25;;;24.10;68.30;;;;;;4768830;55;21025;-35
2023/05/26 19:04:55;;;;;;;27.75;24.95;;;24.10;68.30;;;;;;4809926;55;21054;-32
2023/05/26 19:09:56;;;;;;;29.48;26.33;;;24.10;68.30;;;;;;4879155;55;21025;-34
2023/05/26 19:14:57;;;;;;;28.70;24.73;;;24.10;68.30;;;;;;4783397;55;21013;-33
2023/05/26 19:19:57;;;;;;;28.87;25.75;;;24.10;68.30;;;;;;4933370;54;21014;-32
2023/05/26 19:24:58;;;;;;;27.75;24.70;;;24.10;68.20;;;;;;4886561;55;21017;-33
2023/05/26 19:29:59;;;;;;;28.75;25.75;;;24.10;68.20;;;;;;4762232;55;21088;-35
2023/05/26 19:35:00;;;;;;;29.30;25.52;;;24.00;68.00;;;;;;4937460;55;21006;-37
2023/05/26 19:40:01;;;;;;;28.48;25.35;;;24.10;68.10;;;;;;4739034;59;21495;-30
2023/05/26 19:45:02;;;;;;;28.20;25.10;;;24.10;68.10;;;;;;4739460;59;21022;-33
2023/05/26 19:50:04;;;;;;;28.73;24.48;;;24.10;68.10;;;;;;4746885;55;21021;-33
2023/05/26 19:55:06;;;;;;;25.92;22.75;;;24.10;68.00;;;;;;4932166;55;21009;-33
2023/05/26 20:00:09;;;;;;;30.35;25.08;;;24.10;68.10;;;;;;4773049;55;21038;-33
2023/05/26 20:05:10;;;;;;;27.55;23.70;;;24.10;68.00;;;;;;4852415;55;21447;-34
2023/05/26 20:10:11;;;;;;;26.87;23.98;;;24.10;68.00;;;;;;4792061;55;21061;-34
2023/05/26 20:15:12;;;;;;;27.65;24.65;;;24.00;67.90;;;;;;4788929;55;21029;-33
2023/05/26 20:20:13;;;;;;;28.52;24.17;;;24.00;67.90;;;;;;4909726;55;21002;-33
2023/05/26 20:25:14;;;;;;;27.52;23.65;;;24.00;67.90;;;;;;4740859;55;21626;-33
2023/05/26 20:30:15;;;;;;;28.95;23.92;;;24.00;67.90;;;;;;4740342;59;21014;-33
2023/05/26 20:35:17;;;;;;;29.70;25.00;;;24.00;67.90;;;;;;4774293;55;21468;-34
2023/05/26 20:40:22;;;;;;;27.62;23.10;;;24.00;67.90;;;;;;4823383;55;21144;-33
2023/05/26 20:45:23;;;;;;;28.45;24.25;;;24.00;67.90;;;;;;4796242;55;21563;-33
2023/05/26 20:50:24;;;;;;;28.75;23.85;;;24.00;67.80;;;;;;4767015;55;21109;-32
2023/05/26 20:55:25;;;;;;;27.30;22.98;;;24.00;67.80;;;;;;4740572;58;21082;-33
2023/05/26 21:00:26;;;;;;;26.80;23.48;;;24.00;67.90;;;;;;4973102;55;21073;-33
2023/05/26 21:05:26;;;;;;;28.00;22.90;;;24.00;67.80;;;;;;4740282;59;21610;-36
2023/05/26 21:10:27;;;;;;;29.17;23.83;;;24.00;67.80;;;;;;4739888;59;21046;-36
2023/05/26 21:15:28;;;;;;;27.20;23.30;;;24.00;67.80;;;;;;4797019;55;20997;-37
2023/05/26 21:20:30;;;;;;;26.42;22.42;;;24.00;67.80;;;;;;4740035;59;21006;-33
2023/05/26 21:25:30;;;;;;;25.95;21.83;;;24.00;67.80;;;;;;4740150;55;21587;-32
2023/05/26 21:30:31;;;;;;;25.80;22.37;;;24.00;67.80;;;;;;4749944;55;20997;-35
2023/05/26 21:35:32;;;;;;;25.42;22.70;;;24.00;67.80;;;;;;4749936;55;20981;-33
2023/05/26 21:40:33;;;;;;;24.67;21.80;;;24.00;68.30;;;;;;4781611;54;21060;-40
2023/05/26 21:45:34;;;;;;;25.30;21.77;;;24.00;67.80;;;;;;4752080;55;21580;-31
2023/05/26 21:50:35;;;;;;;24.75;21.15;;;24.00;67.70;;;;;;4843328;54;21076;-37
2023/05/26 21:55:36;;;;;;;24.70;21.58;;;24.00;67.70;;;;;;4809112;55;21093;-32
2023/05/26 22:00:38;;;;;;;25.50;22.48;;;24.00;67.70;;;;;;4819449;55;21450;-37
2023/05/26 22:05:39;;;;;;;25.15;21.60;;;24.00;67.70;;;;;;4906443;55;21576;-39
2023/05/26 22:10:40;;;;;;;24.30;21.25;;;24.00;67.70;;;;;;4828759;55;21484;-33
2023/05/26 22:15:41;;;;;;;23.90;20.05;;;24.00;67.70;;;;;;4812694;55;21021;-34
2023/05/26 22:20:42;;;;;;;26.65;22.23;;;24.00;67.70;;;;;;4740142;59;21560;-32
2023/05/26 22:25:42;;;;;;;24.02;20.92;;;24.00;67.70;;;;;;4740066;59;21073;-31
2023/05/26 22:30:57;;;;;;;24.17;19.95;;;24.00;67.70;;;;;;4740212;59;22125;-36
2023/05/26 22:35:58;;;;;;;25.70;21.60;;;24.00;67.70;;;;;;4767393;55;21527;-35
2023/05/26 22:40:58;;;;;;;22.50;19.20;;;24.00;67.70;;;;;;4808191;55;21060;-36
2023/05/26 22:45:59;;;;;;;25.45;21.70;;;24.00;67.70;;;;;;4834534;54;21069;-35
2023/05/26 22:51:01;;;;;;;22.85;19.05;;;24.00;67.60;;;;;;4810676;55;21001;-37
2023/05/26 22:56:02;;;;;;;26.00;21.12;;;24.00;67.70;;;;;;4739920;59;21539;-34
2023/05/26 23:01:02;;;;;;;25.35;22.27;;;24.00;67.70;;;;;;4801789;55;21014;-35
2023/05/26 23:06:03;;;;;;;25.48;21.02;;;24.00;67.60;;;;;;4792412;55;21018;-37
2023/05/26 23:11:04;;;;;;;22.30;19.85;;;24.00;67.60;;;;;;4763143;55;21040;-36
2023/05/26 23:16:06;;;;;;;22.80;19.80;;;24.00;67.60;;;;;;4797711;55;21508;-37
2023/05/26 23:21:07;;;;;;;24.87;20.23;;;24.00;67.70;;;;;;4740237;55;21463;-35
2023/05/26 23:26:08;;;;;;;22.73;19.15;;;24.00;67.60;;;;;;4739756;59;21551;-40
2023/05/26 23:31:09;;;;;;;26.40;20.95;;;24.00;67.60;;;;;;4741388;55;21001;-37
2023/05/26 23:36:10;;;;;;;21.83;19.10;;;24.00;68.00;;;;;;4757182;55;21041;-33
2023/05/26 23:41:11;;;;;;;24.73;20.20;;;24.00;67.60;;;;;;4740259;59;20998;-36
2023/05/26 23:46:11;;;;;;;23.17;19.73;;;24.00;67.70;;;;;;4864026;55;21033;-36
2023/05/26 23:51:12;;;;;;;22.50;19.75;;;24.00;67.70;;;;;;4827546;54;21021;-35
2023/05/26 23:56:13;;;;;;;22.40;19.60;;;24.00;67.60;;;;;;4744223;55;21037;-34
